Time;durP1;ratioP1;P1;durP2;ratioP2;P2;SDS_P1;SDS_P2;PMS_P1;PMS_P2;Temp;Humidity;BMP_temperature;BMP_pressure;BME280_temperature;BME280_humidity;BME280_pressure;Samples;Min_cycle;Max_cycle;Signal;HPM_P1;HPM_P2
2021/08/31 07:18:33;;;;;;;6.45;3.97;;;24.60;29.00;;;;;;3833716;37;20075;-65
2021/08/31 07:20:59;;;;;;;5.85;3.55;;;24.20;30.50;;;;;;4359946;32;20058;-64
2021/08/31 07:23:26;;;;;;;7.20;4.18;;;24.20;30.90;;;;;;4362777;32;20093;-64
2021/08/31 07:25:52;;;;;;;6.72;4.28;;;24.10;29.90;;;;;;4338710;32;20162;-65
2021/08/31 07:28:18;;;;;;;6.72;3.70;;;24.20;29.60;;;;;;4350770;32;20149;-64
2021/08/31 07:30:45;;;;;;;7.68;4.10;;;24.10;29.60;;;;;;4363771;32;20501;-65
2021/08/31 07:33:11;;;;;;;8.57;3.90;;;24.10;30.00;;;;;;4356982;32;20146;-64
2021/08/31 07:35:38;;;;;;;8.07;3.85;;;23.80;30.00;;;;;;4364353;32;20441;-65
2021/08/31 07:38:05;;;;;;;6.70;3.95;;;24.30;29.80;;;;;;4352257;32;20069;-65
2021/08/31 07:40:32;;;;;;;8.90;4.62;;;24.30;29.70;;;;;;4362957;32;20069;-67
2021/08/31 07:42:58;;;;;;;11.32;3.83;;;24.70;28.90;;;;;;4353270;32;20646;-68
2021/08/31 07:45:24;;;;;;;7.35;4.28;;;24.50;29.70;;;;;;4355601;32;20160;-65
2021/08/31 07:47:51;;;;;;;10.23;4.43;;;24.40;29.70;;;;;;4371704;32;20085;-68
2021/08/31 07:50:17;;;;;;;9.32;4.30;;;24.60;29.40;;;;;;4367047;32;20504;-65
2021/08/31 07:52:46;;;;;;;9.27;4.87;;;25.10;29.20;;;;;;4346403;32;20499;-70
2021/08/31 07:55:13;;;;;;;8.95;4.10;;;25.00;29.00;;;;;;4341353;32;20630;-71
2021/08/31 07:57:40;;;;;;;8.20;3.95;;;24.50;28.60;;;;;;4384467;32;20089;-68
2021/08/31 08:00:08;;;;;;;6.90;4.35;;;24.80;29.00;;;;;;4355231;32;20226;-68
2021/08/31 08:02:35;;;;;;;10.75;3.92;;;25.00;28.10;;;;;;4348927;32;20189;-74
2021/08/31 08:05:05;;;;;;;7.93;4.30;;;25.20;27.70;;;;;;4376403;32;20145;-73
2021/08/31 08:07:31;;;;;;;7.05;3.95;;;24.60;28.10;;;;;;4346200;32;20125;-72
2021/08/31 08:09:58;;;;;;;10.02;5.55;;;25.10;27.50;;;;;;4348504;32;20156;-73
2021/08/31 08:12:25;;;;;;;8.70;4.28;;;25.30;26.70;;;;;;4367708;32;20084;-72
2021/08/31 08:14:51;;;;;;;9.05;4.15;;;24.70;27.10;;;;;;4349618;32;20142;-69
2021/08/31 08:17:19;;;;;;;8.70;4.45;;;24.90;27.10;;;;;;4362012;32;20149;-69
2021/08/31 08:19:46;;;;;;;6.75;4.25;;;25.70;27.00;;;;;;4343481;32;20226;-70
2021/08/31 08:22:12;;;;;;;7.50;4.28;;;25.60;26.50;;;;;;4357084;32;20132;-73
2021/08/31 08:24:39;;;;;;;6.78;4.00;;;25.10;25.30;;;;;;4366426;32;20154;-67
2021/08/31 08:27:09;;;;;;;9.88;4.78;;;25.50;25.70;;;;;;4363301;32;20073;-69
2021/08/31 08:29:54;;;;;;;9.32;4.03;;;25.60;26.60;;;;;;4344804;32;20525;-67
2021/08/31 08:32:20;;;;;;;8.48;4.12;;;25.60;25.60;;;;;;4360606;32;20154;-82
2021/08/31 08:34:47;;;;;;;11.27;4.40;;;25.40;25.20;;;;;;4343466;32;20054;-76
2021/08/31 08:37:13;;;;;;;8.32;4.25;;;25.40;25.40;;;;;;4340267;32;20149;-74
2021/08/31 08:39:40;;;;;;;9.20;4.28;;;25.90;25.10;;;;;;4361525;32;20563;-75
2021/08/31 08:42:12;;;;;;;9.02;4.57;;;25.70;26.00;;;;;;4335200;32;20452;-75
2021/08/31 08:44:38;;;;;;;6.53;4.35;;;25.90;25.90;;;;;;4360917;32;20155;-75
2021/08/31 08:47:05;;;;;;;8.38;3.90;;;26.10;24.90;;;;;;4336337;32;20098;-73
2021/08/31 08:49:32;;;;;;;7.05;4.28;;;25.90;25.70;;;;;;4355401;32;20070;-72
2021/08/31 08:52:00;;;;;;;8.30;4.57;;;26.40;25.10;;;;;;4341797;32;20154;-73
2021/08/31 08:54:26;;;;;;;8.25;4.55;;;26.40;25.10;;;;;;4334739;32;20177;-73
2021/08/31 08:56:54;;;;;;;7.62;3.97;;;26.20;25.70;;;;;;4334723;32;20081;-75
2021/08/31 08:59:21;;;;;;;7.07;4.18;;;26.30;24.60;;;;;;4343363;32;20169;-72
2021/08/31 09:01:52;;;;;;;9.20;4.00;;;26.40;24.80;;;;;;4360669;32;20155;-72
2021/08/31 09:04:21;;;;;;;7.90;4.07;;;26.20;24.50;;;;;;4328074;32;20605;-72
2021/08/31 09:06:48;;;;;;;10.38;4.35;;;25.60;24.40;;;;;;4350063;32;20217;-72
2021/08/31 09:09:15;;;;;;;8.65;4.37;;;26.00;25.20;;;;;;4338961;32;20212;-76
2021/08/31 09:11:47;;;;;;;7.82;4.07;;;26.30;24.70;;;;;;4347455;32;20200;-73
2021/08/31 09:14:28;;;;;;;8.23;4.12;;;26.30;24.20;;;;;;4346483;32;20059;-73
2021/08/31 09:17:00;;;;;;;7.90;4.25;;;26.10;24.70;;;;;;4328315;32;20162;-72
2021/08/31 09:19:32;;;;;;;10.10;4.47;;;26.30;24.10;;;;;;4362158;32;20542;-75
2021/08/31 09:22:19;;;;;;;7.95;4.53;;;26.10;23.80;;;;;;4348215;32;20484;-72
2021/08/31 09:25:00;;;;;;;;;;;26.30;24.00;;;;;;4347268;32;20075;-73
2021/08/31 09:27:52;;;;;;;7.07;4.15;;;26.50;23.70;;;;;;4361894;32;20033;-72
2021/08/31 09:30:24;;;;;;;9.45;4.35;;;26.80;23.50;;;;;;4355462;32;20154;-72
2021/08/31 09:33:06;;;;;;;7.80;3.75;;;26.60;23.10;;;;;;4349146;32;20066;-75
2021/08/31 09:35:36;;;;;;;9.07;3.85;;;26.50;23.30;;;;;;4335848;32;20161;-70
2021/08/31 09:38:10;;;;;;;7.72;4.03;;;26.80;23.10;;;;;;4349272;32;20177;-69
2021/08/31 09:40:55;;;;;;;8.25;3.80;;;26.80;22.70;;;;;;4345244;32;20081;-71
2021/08/31 09:43:49;;;;;;;6.25;3.80;;;26.50;23.20;;;;;;4363160;32;20105;-72
2021/08/31 09:46:59;;;;;;;8.45;3.83;;;27.10;23.00;;;;;;4345640;32;20178;-72
2021/08/31 09:49:33;;;;;;;5.65;3.58;;;27.40;22.60;;;;;;4344289;32;20091;-74
2021/08/31 09:52:10;;;;;;;6.62;3.97;;;26.70;22.20;;;;;;4323746;32;20142;-70
2021/08/31 09:54:49;;;;;;;5.65;3.25;;;26.90;22.60;;;;;;4353826;32;20744;-71
2021/08/31 09:57:36;;;;;;;7.37;3.67;;;27.00;23.10;;;;;;4330596;32;20142;-72
2021/08/31 10:00:08;;;;;;;7.93;3.80;;;27.20;22.00;;;;;;4322952;32;20154;-74
2021/08/31 10:02:35;;;;;;;6.43;3.80;;;27.20;21.90;;;;;;4328683;32;20138;-72
2021/08/31 10:05:04;;;;;;;6.55;3.60;;;27.10;21.40;;;;;;4345642;32;20055;-73
2021/08/31 10:07:31;;;;;;;6.68;3.80;;;27.00;21.90;;;;;;4328849;32;20138;-72
2021/08/31 10:09:58;;;;;;;8.30;4.03;;;27.50;21.50;;;;;;4332736;32;20095;-72
2021/08/31 10:12:25;;;;;;;6.50;3.78;;;27.50;21.70;;;;;;4360405;32;20169;-72
2021/08/31 10:14:54;;;;;;;6.95;4.12;;;27.80;21.40;;;;;;4358964;32;20054;-71
2021/08/31 10:17:27;;;;;;;7.68;3.87;;;27.70;21.00;;;;;;4326846;32;21015;-73
2021/08/31 10:19:57;;;;;;;7.87;3.53;;;27.30;21.80;;;;;;4327027;32;20153;-71
2021/08/31 10:22:23;;;;;;;5.43;3.62;;;27.70;21.40;;;;;;4323600;32;20440;-74
2021/08/31 10:24:51;;;;;;;7.00;4.20;;;28.00;20.70;;;;;;4341334;32;20069;-73
2021/08/31 10:27:50;;;;;;;7.53;4.00;;;27.40;21.00;;;;;;4336970;32;20165;-73
2021/08/31 10:30:19;;;;;;;9.32;4.37;;;28.00;20.80;;;;;;4313755;32;20231;-72
2021/08/31 10:32:54;;;;;;;7.22;3.53;;;27.50;20.70;;;;;;4367658;32;20070;-72
2021/08/31 10:35:36;;;;;;;9.75;4.18;;;27.40;20.60;;;;;;4346335;32;20532;-73
2021/08/31 10:38:04;;;;;;;8.02;3.65;;;27.40;20.70;;;;;;4338103;32;20433;-73
2021/08/31 10:40:38;;;;;;;7.62;4.03;;;27.40;20.20;;;;;;4349075;32;21766;-75
2021/08/31 10:43:09;;;;;;;7.30;4.10;;;27.70;20.40;;;;;;4338281;32;20158;-72
2021/08/31 10:45:37;;;;;;;8.65;3.95;;;27.70;20.60;;;;;;4329786;32;20159;-73
2021/08/31 10:48:23;;;;;;;6.45;3.75;;;27.80;20.80;;;;;;4344386;32;20156;-74
2021/08/31 10:51:07;;;;;;;;;;;28.20;20.80;;;;;;4352818;32;20094;-73
2021/08/31 10:53:44;;;;;;;6.68;3.72;;;28.40;19.90;;;;;;4342080;32;19994;-70
2021/08/31 10:58:53;;;;;;;6.70;3.90;;;28.00;20.70;;;;;;4367736;32;20167;-70
2021/08/31 11:01:27;;;;;;;7.60;4.20;;;27.90;20.70;;;;;;4318021;32;20516;-70
2021/08/31 11:03:55;;;;;;;13.18;4.95;;;28.10;20.50;;;;;;4338605;32;20090;-70
2021/08/31 11:06:33;;;;;;;7.12;3.87;;;27.90;20.90;;;;;;4346115;32;20533;-71
2021/08/31 11:09:18;;;;;;;6.87;3.72;;;27.90;21.10;;;;;;4358893;32;20078;-70
2021/08/31 11:11:47;;;;;;;5.15;3.42;;;27.70;21.20;;;;;;4365416;32;20098;-73
2021/08/31 11:14:14;;;;;;;6.28;3.83;;;27.70;21.80;;;;;;4337068;32;20151;-72
2021/08/31 11:16:40;;;;;;;5.32;3.42;;;27.90;21.30;;;;;;4330489;32;20077;-71
2021/08/31 11:19:23;;;;;;;6.55;4.20;;;27.60;21.10;;;;;;4335224;32;20104;-71
2021/08/31 11:21:50;;;;;;;7.18;4.20;;;28.20;21.00;;;;;;4344847;32;20106;-74
2021/08/31 11:24:17;;;;;;;8.02;4.28;;;27.80;21.40;;;;;;4338306;32;20066;-74
2021/08/31 11:26:43;;;;;;;7.12;3.80;;;28.10;21.40;;;;;;4334272;32;20078;-75
2021/08/31 11:29:12;;;;;;;7.60;3.87;;;28.30;21.00;;;;;;4356447;32;20085;-73
2021/08/31 11:31:38;;;;;;;5.57;3.60;;;28.70;20.90;;;;;;4335539;32;20101;-71
2021/08/31 11:34:11;;;;;;;5.72;3.67;;;28.50;20.50;;;;;;4327725;32;20067;-71
2021/08/31 11:36:39;;;;;;;6.80;4.12;;;28.20;21.60;;;;;;4341130;32;20070;-73
2021/08/31 11:39:07;;;;;;;5.87;3.72;;;28.10;21.70;;;;;;4349582;32;20074;-75
2021/08/31 11:41:39;;;;;;;5.75;3.70;;;28.00;22.10;;;;;;4330851;32;20155;-73
2021/08/31 11:44:14;;;;;;;6.37;3.90;;;28.50;21.90;;;;;;4351050;32;20109;-73
2021/08/31 11:46:52;;;;;;;5.57;3.42;;;28.60;21.50;;;;;;4334018;32;20077;-71
2021/08/31 11:49:25;;;;;;;6.18;3.95;;;28.30;21.20;;;;;;4337482;32;20108;-73
2021/08/31 11:51:54;;;;;;;11.20;4.32;;;28.30;21.30;;;;;;4361711;32;20077;-73
2021/08/31 11:54:21;;;;;;;5.40;3.87;;;28.60;21.30;;;;;;4355585;32;20154;-74
2021/08/31 11:56:58;;;;;;;6.12;4.40;;;28.60;21.20;;;;;;4333947;32;20152;-72
2021/08/31 11:59:39;;;;;;;5.18;3.60;;;28.80;21.20;;;;;;4346157;32;20074;-73
2021/08/31 12:02:21;;;;;;;7.53;3.78;;;28.60;20.50;;;;;;4337006;32;20094;-74
2021/08/31 12:04:54;;;;;;;5.55;3.55;;;28.30;21.60;;;;;;4351316;32;20088;-74
2021/08/31 12:07:22;;;;;;;6.57;4.10;;;28.30;21.50;;;;;;4362299;32;20074;-75
2021/08/31 12:09:52;;;;;;;6.10;3.80;;;28.40;21.40;;;;;;4343167;32;20223;-73
2021/08/31 12:12:18;;;;;;;8.13;3.80;;;28.50;21.40;;;;;;4336569;32;20477;-77
2021/08/31 12:14:49;;;;;;;7.00;3.80;;;28.40;21.40;;;;;;4326364;32;20063;-75
2021/08/31 12:17:32;;;;;;;6.70;3.60;;;28.90;21.30;;;;;;4339526;32;20077;-73
2021/08/31 12:20:41;;;;;;;6.22;3.97;;;28.80;21.20;;;;;;4370993;32;20156;-68
2021/08/31 12:23:10;;;;;;;5.80;3.72;;;28.50;20.80;;;;;;4348146;32;20182;-71
2021/08/31 12:25:48;;;;;;;7.95;4.30;;;28.50;20.30;;;;;;4339264;32;20187;-70
2021/08/31 12:28:18;;;;;;;8.07;4.10;;;28.50;20.10;;;;;;4347698;32;20078;-72
2021/08/31 12:30:46;;;;;;;5.87;3.70;;;28.20;20.90;;;;;;4335507;32;20155;-71
2021/08/31 12:33:23;;;;;;;9.23;4.20;;;28.60;20.70;;;;;;4334967;32;20086;-71
2021/08/31 12:36:00;;;;;;;9.63;4.68;;;28.30;20.90;;;;;;4358482;32;20128;-72
2021/08/31 12:38:41;;;;;;;7.35;4.15;;;28.70;20.80;;;;;;4363213;32;20095;-74
2021/08/31 12:41:11;;;;;;;8.82;5.00;;;28.30;20.60;;;;;;4326862;32;20085;-72
2021/08/31 12:43:50;;;;;;;7.53;3.97;;;28.40;20.80;;;;;;4345034;32;20502;-72
2021/08/31 12:46:24;;;;;;;6.47;3.72;;;28.70;20.80;;;;;;4330799;32;20066;-64
2021/08/31 12:49:07;;;;;;;7.47;4.22;;;28.30;21.00;;;;;;4363805;32;20086;-74
2021/08/31 12:51:39;;;;;;;8.45;4.25;;;28.20;21.50;;;;;;4353690;32;20510;-75
2021/08/31 12:54:21;;;;;;;7.85;3.90;;;28.30;21.10;;;;;;4351274;32;20485;-77
2021/08/31 12:56:56;;;;;;;7.80;4.28;;;28.40;21.00;;;;;;4349078;32;20501;-74
2021/08/31 12:59:44;;;;;;;7.72;4.47;;;28.20;21.00;;;;;;4348403;32;20271;-80
2021/08/31 13:02:12;;;;;;;8.23;4.57;;;28.50;20.90;;;;;;4342496;32;20081;-75
2021/08/31 13:04:43;;;;;;;6.45;3.83;;;28.40;20.50;;;;;;4344747;32;20070;-72
2021/08/31 13:07:11;;;;;;;6.12;4.22;;;28.20;20.10;;;;;;4338300;32;20593;-74
2021/08/31 13:09:46;;;;;;;6.07;3.87;;;28.40;20.50;;;;;;4349495;32;20067;-71
2021/08/31 13:12:14;;;;;;;9.27;4.22;;;28.30;20.40;;;;;;4336031;32;20060;-72
2021/08/31 13:14:41;;;;;;;8.80;4.10;;;28.30;20.40;;;;;;4337501;32;20082;-74
2021/08/31 13:17:07;;;;;;;6.55;4.15;;;28.30;20.60;;;;;;4339583;32;20075;-72
2021/08/31 13:19:33;;;;;;;9.55;4.25;;;28.50;20.40;;;;;;4360764;32;20069;-72
2021/08/31 13:22:00;;;;;;;6.70;3.92;;;28.10;20.10;;;;;;4351467;32;20081;-71
2021/08/31 13:24:28;;;;;;;7.70;4.57;;;28.60;20.20;;;;;;4350567;32;20070;-72
2021/08/31 13:26:54;;;;;;;7.57;4.12;;;28.50;20.20;;;;;;4334899;32;20450;-73
2021/08/31 13:29:20;;;;;;;7.75;3.85;;;28.40;20.30;;;;;;4350690;32;20556;-74
2021/08/31 13:31:47;;;;;;;7.65;4.18;;;28.40;20.50;;;;;;4360478;32;20553;-71
2021/08/31 13:34:13;;;;;;;8.05;4.45;;;28.30;20.40;;;;;;4339132;32;20497;-73
2021/08/31 13:36:41;;;;;;;7.37;3.90;;;28.40;20.20;;;;;;4338594;32;20083;-73
2021/08/31 13:39:08;;;;;;;9.32;4.60;;;28.50;20.30;;;;;;4339372;32;20512;-71
2021/08/31 13:41:35;;;;;;;10.57;3.97;;;28.60;20.40;;;;;;4339280;32;20066;-74
2021/08/31 13:44:02;;;;;;;8.07;4.68;;;28.50;20.20;;;;;;4339742;32;20077;-73
2021/08/31 13:46:28;;;;;;;6.43;4.10;;;28.50;20.30;;;;;;4352345;32;20067;-72
2021/08/31 13:48:54;;;;;;;6.62;4.32;;;28.30;20.40;;;;;;4341749;32;20078;-72
2021/08/31 13:51:21;;;;;;;7.00;4.45;;;28.40;20.40;;;;;;4347209;32;20066;-74
2021/08/31 13:53:47;;;;;;;6.85;3.75;;;28.30;20.40;;;;;;4339396;32;20210;-74
2021/08/31 13:56:13;;;;;;;7.75;4.22;;;28.20;20.40;;;;;;4339000;32;20059;-73
2021/08/31 13:58:39;;;;;;;5.15;3.80;;;28.30;20.70;;;;;;4354281;32;20069;-73
2021/08/31 14:01:05;;;;;;;6.75;3.75;;;28.20;20.50;;;;;;4356122;32;20074;-73
2021/08/31 14:03:32;;;;;;;8.02;4.05;;;28.20;20.60;;;;;;4327470;32;20098;-72
2021/08/31 14:05:58;;;;;;;6.57;3.87;;;28.00;20.80;;;;;;4338963;32;20070;-72
2021/08/31 14:08:24;;;;;;;6.95;4.25;;;28.00;21.00;;;;;;4342495;32;20144;-74
2021/08/31 14:10:50;;;;;;;6.82;4.35;;;28.00;21.10;;;;;;4356142;32;20195;-74
2021/08/31 14:13:17;;;;;;;15.30;5.18;;;28.10;21.60;;;;;;4342334;32;20286;-73
2021/08/31 14:15:45;;;;;;;6.62;4.00;;;28.00;22.20;;;;;;4359029;32;20110;-71
2021/08/31 14:18:11;;;;;;;9.15;4.37;;;27.90;22.90;;;;;;4335595;32;20596;-75
2021/08/31 14:20:37;;;;;;;6.55;4.18;;;28.10;22.90;;;;;;4328549;32;20598;-78
2021/08/31 14:23:04;;;;;;;9.45;4.20;;;27.90;23.40;;;;;;4345234;32;20093;-77
2021/08/31 14:25:30;;;;;;;8.77;4.07;;;27.80;23.60;;;;;;4347465;32;20093;-73
2021/08/31 14:27:56;;;;;;;8.32;4.20;;;27.70;23.40;;;;;;4339929;32;20073;-74
2021/08/31 14:30:22;;;;;;;7.70;4.03;;;27.50;23.60;;;;;;4346170;32;20082;-72
2021/08/31 14:32:49;;;;;;;9.10;4.40;;;27.40;23.00;;;;;;4360095;32;20114;-73
2021/08/31 14:35:15;;;;;;;8.27;4.43;;;27.50;23.30;;;;;;4357570;32;20073;-71
2021/08/31 14:37:41;;;;;;;9.07;3.72;;;27.40;23.20;;;;;;4347482;32;20113;-73
2021/08/31 14:40:10;;;;;;;7.68;4.70;;;27.30;22.90;;;;;;4351906;32;20506;-73
2021/08/31 14:42:41;;;;;;;6.97;4.05;;;27.40;23.00;;;;;;4336190;32;20500;-74
2021/08/31 14:45:08;;;;;;;7.85;4.57;;;27.40;22.60;;;;;;4346064;32;20074;-73
2021/08/31 14:47:35;;;;;;;8.30;4.68;;;27.40;22.50;;;;;;4325899;32;20078;-72
2021/08/31 14:50:04;;;;;;;6.47;4.18;;;27.30;22.50;;;;;;4329206;32;20489;-73
2021/08/31 14:52:30;;;;;;;6.25;3.97;;;27.20;22.10;;;;;;4335084;32;20100;-74
2021/08/31 14:54:56;;;;;;;8.68;4.12;;;27.20;22.00;;;;;;4343643;32;20063;-75
2021/08/31 14:57:23;;;;;;;10.65;4.68;;;27.10;22.20;;;;;;4335035;32;20141;-73
2021/08/31 14:59:49;;;;;;;8.48;4.53;;;27.00;22.50;;;;;;4330581;32;20231;-81
2021/08/31 15:02:15;;;;;;;7.47;4.28;;;26.90;23.00;;;;;;4335563;32;20066;-76
2021/08/31 15:04:41;;;;;;;9.93;4.30;;;26.80;23.40;;;;;;4328283;32;20505;-74
2021/08/31 15:07:07;;;;;;;8.50;4.05;;;26.70;24.00;;;;;;4352948;32;20058;-72
2021/08/31 15:09:34;;;;;;;7.78;4.45;;;26.60;24.50;;;;;;4337649;32;20186;-74
2021/08/31 15:12:00;;;;;;;6.30;4.03;;;26.50;25.00;;;;;;4351795;32;20510;-66
2021/08/31 15:14:26;;;;;;;10.93;4.45;;;26.50;25.10;;;;;;4335833;32;20074;-76
2021/08/31 15:16:52;;;;;;;9.05;4.40;;;26.40;25.30;;;;;;4330447;32;20094;-76
2021/08/31 15:19:18;;;;;;;8.05;4.43;;;26.30;25.80;;;;;;4332176;32;20097;-77
2021/08/31 15:21:44;;;;;;;6.62;4.45;;;26.30;25.90;;;;;;4332553;32;20106;-77
2021/08/31 15:24:11;;;;;;;7.40;4.37;;;26.30;25.70;;;;;;4333584;32;20492;-77
2021/08/31 15:26:40;;;;;;;6.40;4.15;;;26.20;26.20;;;;;;4334456;32;20162;-76
2021/08/31 15:29:10;;;;;;;11.10;4.90;;;26.10;26.20;;;;;;4321012;32;20117;-76
2021/08/31 15:31:37;;;;;;;11.10;4.10;;;26.00;26.40;;;;;;4323273;32;20444;-76
2021/08/31 15:34:04;;;;;;;11.85;4.80;;;26.00;26.80;;;;;;4335340;32;20509;-77
2021/08/31 15:36:30;;;;;;;7.03;4.18;;;26.00;26.40;;;;;;4335201;32;20536;-77
2021/08/31 15:39:00;;;;;;;8.68;4.43;;;25.90;26.40;;;;;;4336728;32;20093;-76
2021/08/31 15:41:27;;;;;;;8.15;4.78;;;25.80;26.70;;;;;;4338201;32;20422;-76
2021/08/31 15:43:53;;;;;;;8.18;4.50;;;25.80;26.90;;;;;;4338467;32;20063;-76
2021/08/31 15:46:19;;;;;;;8.98;4.40;;;25.70;27.20;;;;;;4326138;32;20073;-77
2021/08/31 15:48:47;;;;;;;7.10;4.57;;;25.60;27.40;;;;;;4314026;32;20101;-76
2021/08/31 15:51:13;;;;;;;6.80;4.20;;;25.60;27.50;;;;;;4338285;32;20074;-76
2021/08/31 15:53:43;;;;;;;8.63;4.75;;;25.60;27.80;;;;;;4326502;32;20086;-77
2021/08/31 15:56:09;;;;;;;9.55;4.32;;;25.50;28.30;;;;;;4314396;32;20078;-77
2021/08/31 15:58:37;;;;;;;8.85;4.45;;;25.40;28.70;;;;;;4338126;32;20074;-77
2021/08/31 16:01:04;;;;;;;7.15;4.22;;;25.30;29.10;;;;;;4326496;32;20085;-77
2021/08/31 16:03:30;;;;;;;11.20;4.28;;;25.30;29.60;;;;;;4326877;32;20082;-77
2021/08/31 16:05:57;;;;;;;7.57;4.40;;;25.20;30.30;;;;;;4350870;32;20067;-76
2021/08/31 16:08:23;;;;;;;8.13;4.37;;;25.20;30.90;;;;;;4338052;32;20079;-77
2021/08/31 16:10:49;;;;;;;11.20;5.40;;;25.00;31.60;;;;;;4326119;32;20175;-77
2021/08/31 16:13:15;;;;;;;9.60;4.70;;;25.00;32.80;;;;;;4326036;32;20090;-76
2021/08/31 16:15:43;;;;;;;7.87;4.47;;;24.90;33.30;;;;;;4350249;32;20078;-77
2021/08/31 16:18:10;;;;;;;8.60;4.22;;;24.80;34.30;;;;;;4338293;32;20075;-77
2021/08/31 16:20:36;;;;;;;6.90;4.20;;;24.70;35.50;;;;;;4326113;32;20079;-77
2021/08/31 16:23:04;;;;;;;10.93;5.25;;;24.70;34.10;;;;;;4338748;32;20153;-77
2021/08/31 16:25:31;;;;;;;9.07;4.60;;;24.60;34.30;;;;;;4365045;32;20086;-77
2021/08/31 16:27:57;;;;;;;12.77;4.75;;;24.60;33.70;;;;;;4326592;32;20094;-76
2021/08/31 16:30:24;;;;;;;8.75;4.70;;;24.60;33.30;;;;;;4326578;32;20445;-78
2021/08/31 16:32:50;;;;;;;9.18;5.03;;;24.70;32.10;;;;;;4326620;32;20079;-76
2021/08/31 16:35:16;;;;;;;10.27;5.20;;;24.70;31.80;;;;;;4326071;32;20078;-77
2021/08/31 16:37:43;;;;;;;8.85;4.40;;;24.70;30.90;;;;;;4338368;32;20162;-77
2021/08/31 16:40:12;;;;;;;8.65;4.70;;;24.70;31.00;;;;;;4326203;32;20077;-77
2021/08/31 16:42:38;;;;;;;7.30;4.18;;;24.70;30.80;;;;;;4338016;32;20193;-76
2021/08/31 16:45:06;;;;;;;6.85;4.18;;;24.60;31.00;;;;;;4325619;32;20066;-77
2021/08/31 16:47:32;;;;;;;11.73;4.78;;;24.60;31.20;;;;;;4325459;32;20584;-76
2021/08/31 16:49:58;;;;;;;9.93;4.80;;;24.60;32.10;;;;;;4313225;32;20175;-76
2021/08/31 16:52:24;;;;;;;9.27;5.03;;;24.50;33.00;;;;;;4350276;32;20079;-76
2021/08/31 16:54:51;;;;;;;9.27;4.75;;;24.50;34.30;;;;;;4363627;32;20066;-76
2021/08/31 16:57:17;;;;;;;7.40;4.37;;;24.40;36.50;;;;;;4313652;32;20078;-77
2021/08/31 16:59:46;;;;;;;8.10;4.53;;;24.20;38.90;;;;;;4337812;32;20070;-77
2021/08/31 17:02:13;;;;;;;7.07;4.32;;;24.00;38.20;;;;;;4325736;32;20509;-77
2021/08/31 17:04:40;;;;;;;9.07;4.85;;;24.00;38.30;;;;;;4325875;32;20078;-77
2021/08/31 17:07:07;;;;;;;9.13;4.62;;;23.90;38.00;;;;;;4325996;32;20098;-77
2021/08/31 17:09:33;;;;;;;8.05;4.53;;;23.90;37.60;;;;;;4325886;32;20074;-77
2021/08/31 17:12:00;;;;;;;8.10;4.60;;;23.90;37.50;;;;;;4349923;32;20066;-77
2021/08/31 17:14:26;;;;;;;10.50;4.70;;;23.80;37.60;;;;;;4326019;32;20086;-77
2021/08/31 17:16:52;;;;;;;9.45;4.87;;;23.80;37.60;;;;;;4351228;32;20505;-77
2021/08/31 17:19:18;;;;;;;10.15;4.80;;;23.80;37.80;;;;;;4327823;32;20067;-77
2021/08/31 17:21:44;;;;;;;10.02;4.68;;;23.80;38.40;;;;;;4339684;32;20086;-77
2021/08/31 17:24:11;;;;;;;9.85;4.97;;;23.70;38.70;;;;;;4339736;32;20093;-77
2021/08/31 17:26:37;;;;;;;10.23;4.70;;;23.70;38.90;;;;;;4338139;32;20097;-77
2021/08/31 17:29:05;;;;;;;12.10;5.15;;;23.70;39.50;;;;;;4337137;32;20082;-76
2021/08/31 17:31:31;;;;;;;7.22;4.53;;;23.70;41.00;;;;;;4349211;32;20137;-77
2021/08/31 17:33:58;;;;;;;7.47;4.65;;;23.70;40.50;;;;;;4349128;32;20156;-76
2021/08/31 17:36:24;;;;;;;13.73;5.03;;;23.50;40.70;;;;;;4325007;32;20095;-77
2021/08/31 17:38:51;;;;;;;9.70;5.18;;;23.50;40.80;;;;;;4337128;32;20169;-76
2021/08/31 17:41:17;;;;;;;7.28;4.62;;;23.50;40.90;;;;;;4324745;32;20101;-76
2021/08/31 17:43:44;;;;;;;9.48;4.87;;;23.50;40.90;;;;;;4337048;32;20097;-76
2021/08/31 17:46:10;;;;;;;14.20;4.87;;;23.40;41.50;;;;;;4325189;32;20071;-77
2021/08/31 17:48:37;;;;;;;10.43;4.70;;;23.40;41.80;;;;;;4337241;32;20097;-77
2021/08/31 17:51:05;;;;;;;9.95;5.05;;;23.40;41.60;;;;;;4312723;32;20075;-76
2021/08/31 17:53:32;;;;;;;9.60;4.70;;;23.30;41.80;;;;;;4301165;32;20169;-77
2021/08/31 17:55:58;;;;;;;9.55;4.47;;;23.40;41.50;;;;;;4312526;32;20208;-76
2021/08/31 17:58:25;;;;;;;8.50;4.53;;;23.40;40.90;;;;;;4348938;32;20102;-77
2021/08/31 18:00:51;;;;;;;8.98;4.97;;;23.40;40.40;;;;;;4348865;32;20070;-77
2021/08/31 18:03:18;;;;;;;10.40;4.80;;;23.30;40.60;;;;;;4324680;32;20159;-77
2021/08/31 18:05:44;;;;;;;9.75;4.90;;;23.30;40.40;;;;;;4324866;32;20156;-77
2021/08/31 18:08:10;;;;;;;9.50;4.78;;;23.30;39.60;;;;;;4336578;32;20090;-77
2021/08/31 18:10:38;;;;;;;9.32;4.50;;;23.30;39.80;;;;;;4349460;32;20544;-77
2021/08/31 18:13:05;;;;;;;6.55;4.30;;;23.30;39.60;;;;;;4325559;32;20169;-76
2021/08/31 18:15:31;;;;;;;9.50;4.72;;;23.30;39.60;;;;;;4336893;32;20163;-77
2021/08/31 18:17:57;;;;;;;7.40;4.80;;;23.20;39.80;;;;;;4321532;33;20082;-76
2021/08/31 18:20:23;;;;;;;8.63;5.00;;;23.20;39.60;;;;;;4346248;33;20075;-77
2021/08/31 18:22:49;;;;;;;9.13;4.93;;;23.20;40.00;;;;;;4345884;33;20083;-77
2021/08/31 18:25:16;;;;;;;8.23;4.55;;;23.20;39.50;;;;;;4322030;32;20089;-77
2021/08/31 18:27:42;;;;;;;8.05;4.65;;;23.30;39.40;;;;;;4333739;33;20531;-76
2021/08/31 18:30:11;;;;;;;7.55;4.57;;;23.30;39.60;;;;;;4346102;33;20085;-77
2021/08/31 18:32:38;;;;;;;7.93;4.43;;;23.10;40.30;;;;;;4322192;33;20547;-76
2021/08/31 18:35:05;;;;;;;10.00;4.95;;;23.10;40.30;;;;;;4309796;33;20091;-77
2021/08/31 18:37:32;;;;;;;7.35;4.50;;;23.10;40.90;;;;;;4309674;33;20070;-78
2021/08/31 18:39:58;;;;;;;9.27;5.07;;;23.00;40.90;;;;;;4333789;33;20095;-77
2021/08/31 18:42:24;;;;;;;9.02;4.30;;;23.00;41.40;;;;;;4321189;32;20434;-77
2021/08/31 18:44:50;;;;;;;11.50;4.82;;;23.00;41.40;;;;;;4333575;33;20074;-77
2021/08/31 18:47:16;;;;;;;10.18;4.50;;;22.90;41.90;;;;;;4334036;33;20071;-79
2021/08/31 18:49:43;;;;;;;9.23;4.97;;;22.90;42.00;;;;;;4333759;33;20163;-77
2021/08/31 18:52:09;;;;;;;8.35;4.72;;;22.90;41.70;;;;;;4347356;32;20077;-77
2021/08/31 18:54:35;;;;;;;9.43;4.68;;;22.90;41.60;;;;;;4346471;33;20075;-77
2021/08/31 18:57:03;;;;;;;9.70;5.28;;;22.90;41.70;;;;;;4346079;33;20093;-76
2021/08/31 18:59:29;;;;;;;11.07;5.22;;;22.80;41.40;;;;;;4309687;33;20083;-77
2021/08/31 19:01:55;;;;;;;9.40;4.97;;;22.80;41.30;;;;;;4333403;33;20059;-77
2021/08/31 19:04:21;;;;;;;8.02;4.93;;;22.90;41.20;;;;;;4321341;33;20191;-77
2021/08/31 19:06:48;;;;;;;10.10;5.10;;;22.80;41.50;;;;;;4321425;33;20174;-77
2021/08/31 19:09:14;;;;;;;9.07;4.30;;;22.90;41.70;;;;;;4309508;33;20159;-77
2021/08/31 19:11:41;;;;;;;9.45;5.57;;;22.80;42.00;;;;;;4345640;33;20081;-77
2021/08/31 19:14:07;;;;;;;11.18;5.28;;;22.70;42.40;;;;;;4346956;32;20174;-77
2021/08/31 19:16:33;;;;;;;8.80;4.60;;;22.70;42.90;;;;;;4334091;32;20449;-77
2021/08/31 19:18:59;;;;;;;9.88;5.15;;;22.70;43.10;;;;;;4324044;32;20074;-77
2021/08/31 19:22:40;;;;;;;10.93;4.95;;;22.60;43.50;;;;;;3834202;37;20062;-77
2021/08/31 19:25:07;;;;;;;8.20;5.20;;;22.60;44.30;;;;;;4366233;32;20158;-77
2021/08/31 19:27:33;;;;;;;8.93;4.87;;;22.50;44.70;;;;;;4378635;32;20117;-77
2021/08/31 19:29:59;;;;;;;12.27;4.90;;;22.60;44.70;;;;;;4390954;32;20076;-76
2021/08/31 19:32:25;;;;;;;8.63;4.68;;;22.50;44.90;;;;;;4366142;32;20070;-77
2021/08/31 19:34:51;;;;;;;7.68;4.72;;;22.50;44.90;;;;;;4390789;32;20085;-76
2021/08/31 19:37:18;;;;;;;8.82;4.40;;;22.40;44.90;;;;;;4378428;32;20064;-77
2021/08/31 19:39:44;;;;;;;8.25;4.68;;;22.40;45.60;;;;;;4390743;32;20077;-77
2021/08/31 19:42:10;;;;;;;10.55;4.57;;;22.40;46.80;;;;;;4390754;32;20164;-77
2021/08/31 19:44:37;;;;;;;7.80;5.12;;;22.30;47.70;;;;;;4378651;32;20065;-77
2021/08/31 19:47:03;;;;;;;9.00;5.03;;;22.30;48.40;;;;;;4391383;32;20260;-76
2021/08/31 19:49:29;;;;;;;9.32;4.87;;;22.20;48.00;;;;;;4378491;32;20066;-77
2021/08/31 19:51:55;;;;;;;10.23;4.80;;;22.20;48.60;;;;;;4378286;32;20500;-77
2021/08/31 19:54:21;;;;;;;6.97;4.50;;;22.20;47.70;;;;;;4365367;32;20054;-76
2021/08/31 19:56:47;;;;;;;8.18;4.93;;;22.30;47.00;;;;;;4366365;32;20139;-77
2021/08/31 19:59:14;;;;;;;7.37;4.55;;;22.30;47.30;;;;;;4353525;32;20100;-78
2021/08/31 20:01:41;;;;;;;11.52;5.37;;;22.30;47.10;;;;;;4353121;32;20070;-77
2021/08/31 20:04:07;;;;;;;14.55;4.65;;;22.30;47.50;;;;;;4390379;32;20078;-77
2021/08/31 20:06:33;;;;;;;7.82;4.78;;;22.30;47.40;;;;;;4390697;32;20146;-77
2021/08/31 20:08:59;;;;;;;9.77;5.15;;;22.30;47.30;;;;;;4365632;32;20093;-77
2021/08/31 20:11:25;;;;;;;8.02;5.10;;;22.20;47.20;;;;;;4365642;32;20490;-76
2021/08/31 20:13:51;;;;;;;10.40;5.05;;;22.20;47.00;;;;;;4390113;32;20093;-77
2021/08/31 20:16:18;;;;;;;7.57;4.85;;;22.30;46.10;;;;;;4373661;32;20081;-77